sensor_id;sensor_type;location;lat;lon;timestamp;temperature;humidity
40630;DHT22;26329;40.388;-3.710;2023-04-24T00:05:48;17.70;53.70
40630;DHT22;26329;40.388;-3.710;2023-04-24T00:15:49;17.60;54.10
40630;DHT22;26329;40.388;-3.710;2023-04-24T00:25:51;17.40;54.50
40630;DHT22;26329;40.388;-3.710;2023-04-24T00:35:52;17.30;55.10
40630;DHT22;26329;40.388;-3.710;2023-04-24T00:45:54;17.20;55.70
40630;DHT22;26329;40.388;-3.710;2023-04-24T00:55:56;17.20;55.70
40630;DHT22;26329;40.388;-3.710;2023-04-24T01:05:58;17.00;55.90
40630;DHT22;26329;40.388;-3.710;2023-04-24T01:16:01;17.00;56.10
40630;DHT22;26329;40.388;-3.710;2023-04-24T01:26:02;16.90;56.50
40630;DHT22;26329;40.388;-3.710;2023-04-24T01:36:04;16.80;57.10
40630;DHT22;26329;40.388;-3.710;2023-04-24T01:46:06;16.70;57.40
40630;DHT22;26329;40.388;-3.710;2023-04-24T01:56:07;16.50;58.10
40630;DHT22;26329;40.388;-3.710;2023-04-24T02:06:09;16.50;58.10
40630;DHT22;26329;40.388;-3.710;2023-04-24T02:16:11;16.40;58.50
40630;DHT22;26329;40.388;-3.710;2023-04-24T02:26:12;16.30;58.90
40630;DHT22;26329;40.388;-3.710;2023-04-24T02:36:14;16.30;59.00
40630;DHT22;26329;40.388;-3.710;2023-04-24T02:46:15;16.30;59.10
40630;DHT22;26329;40.388;-3.710;2023-04-24T02:56:17;16.20;59.60
40630;DHT22;26329;40.388;-3.710;2023-04-24T03:06:18;16.10;60.10
40630;DHT22;26329;40.388;-3.710;2023-04-24T03:16:19;16.10;60.00
40630;DHT22;26329;40.388;-3.710;2023-04-24T03:26:21;16.10;60.20
40630;DHT22;26329;40.388;-3.710;2023-04-24T03:36:22;16.00;60.30
40630;DHT22;26329;40.388;-3.710;2023-04-24T03:46:23;15.90;60.70
40630;DHT22;26329;40.388;-3.710;2023-04-24T03:56:25;15.90;60.60
40630;DHT22;26329;40.388;-3.710;2023-04-24T04:06:26;15.80;61.40
40630;DHT22;26329;40.388;-3.710;2023-04-24T04:16:28;15.70;61.20
40630;DHT22;26329;40.388;-3.710;2023-04-24T04:26:29;15.60;61.60
40630;DHT22;26329;40.388;-3.710;2023-04-24T04:36:33;15.60;61.70
40630;DHT22;26329;40.388;-3.710;2023-04-24T04:46:37;15.50;61.80
40630;DHT22;26329;40.388;-3.710;2023-04-24T04:56:39;15.50;62.00
40630;DHT22;26329;40.388;-3.710;2023-04-24T05:06:41;15.50;62.20
40630;DHT22;26329;40.388;-3.710;2023-04-24T05:16:42;15.40;62.20
40630;DHT22;26329;40.388;-3.710;2023-04-24T05:26:43;15.30;62.40
40630;DHT22;26329;40.388;-3.710;2023-04-24T05:36:45;15.30;63.00
40630;DHT22;26329;40.388;-3.710;2023-04-24T05:46:47;15.30;63.00
40630;DHT22;26329;40.388;-3.710;2023-04-24T05:56:49;15.30;63.10
40630;DHT22;26329;40.388;-3.710;2023-04-24T06:06:51;15.30;63.30
40630;DHT22;26329;40.388;-3.710;2023-04-24T06:16:56;15.50;63.20
40630;DHT22;26329;40.388;-3.710;2023-04-24T06:26:58;15.50;63.40
40630;DHT22;26329;40.388;-3.710;2023-04-24T06:37:01;15.70;62.60
40630;DHT22;26329;40.388;-3.710;2023-04-24T06:47:03;16.00;61.80
40630;DHT22;26329;40.388;-3.710;2023-04-24T06:57:04;16.30;61.00
40630;DHT22;26329;40.388;-3.710;2023-04-24T07:07:05;16.60;60.50
40630;DHT22;26329;40.388;-3.710;2023-04-24T07:17:07;17.00;59.20
40630;DHT22;26329;40.388;-3.710;2023-04-24T07:27:09;17.80;56.70
40630;DHT22;26329;40.388;-3.710;2023-04-24T07:37:11;18.30;54.20
40630;DHT22;26329;40.388;-3.710;2023-04-24T07:47:12;18.80;52.60
40630;DHT22;26329;40.388;-3.710;2023-04-24T07:57:13;19.30;51.00
40630;DHT22;26329;40.388;-3.710;2023-04-24T08:07:15;19.80;49.30
40630;DHT22;26329;40.388;-3.710;2023-04-24T08:17:17;20.00;48.20
40630;DHT22;26329;40.388;-3.710;2023-04-24T08:27:18;20.00;47.70
40630;DHT22;26329;40.388;-3.710;2023-04-24T08:37:20;20.20;46.70
40630;DHT22;26329;40.388;-3.710;2023-04-24T08:47:22;20.30;47.10
40630;DHT22;26329;40.388;-3.710;2023-04-24T08:57:25;20.50;46.30
40630;DHT22;26329;40.388;-3.710;2023-04-24T09:07:27;20.70;45.40
40630;DHT22;26329;40.388;-3.710;2023-04-24T09:17:32;20.80;44.70
40630;DHT22;26329;40.388;-3.710;2023-04-24T09:27:34;20.80;45.10
40630;DHT22;26329;40.388;-3.710;2023-04-24T09:37:44;20.80;44.70
40630;DHT22;26329;40.388;-3.710;2023-04-24T09:47:45;21.00;44.60
40630;DHT22;26329;40.388;-3.710;2023-04-24T09:57:48;21.20;44.70
40630;DHT22;26329;40.388;-3.710;2023-04-24T10:07:51;21.40;44.00
40630;DHT22;26329;40.388;-3.710;2023-04-24T10:17:53;21.60;43.60
40630;DHT22;26329;40.388;-3.710;2023-04-24T10:27:55;21.40;43.60
40630;DHT22;26329;40.388;-3.710;2023-04-24T10:38:08;21.80;42.90
40630;DHT22;26329;40.388;-3.710;2023-04-24T10:48:10;21.90;42.30
40630;DHT22;26329;40.388;-3.710;2023-04-24T10:58:14;22.10;42.10
40630;DHT22;26329;40.388;-3.710;2023-04-24T11:08:31;22.30;40.70
40630;DHT22;26329;40.388;-3.710;2023-04-24T11:18:39;22.30;40.60
40630;DHT22;26329;40.388;-3.710;2023-04-24T11:28:47;22.70;40.10
40630;DHT22;26329;40.388;-3.710;2023-04-24T11:38:49;22.70;39.10
40630;DHT22;26329;40.388;-3.710;2023-04-24T11:48:51;23.00;37.40
40630;DHT22;26329;40.388;-3.710;2023-04-24T11:58:53;22.90;37.10
40630;DHT22;26329;40.388;-3.710;2023-04-24T12:08:57;23.10;37.30
40630;DHT22;26329;40.388;-3.710;2023-04-24T12:18:59;23.50;36.50
40630;DHT22;26329;40.388;-3.710;2023-04-24T12:29:03;23.50;35.40
40630;DHT22;26329;40.388;-3.710;2023-04-24T12:39:15;23.50;35.40
40630;DHT22;26329;40.388;-3.710;2023-04-24T12:49:16;23.70;35.60
40630;DHT22;26329;40.388;-3.710;2023-04-24T12:59:18;23.90;35.30
40630;DHT22;26329;40.388;-3.710;2023-04-24T13:09:19;24.00;34.90
40630;DHT22;26329;40.388;-3.710;2023-04-24T13:19:21;23.90;34.80
40630;DHT22;26329;40.388;-3.710;2023-04-24T13:29:22;24.20;34.60
40630;DHT22;26329;40.388;-3.710;2023-04-24T13:39:24;24.50;33.80
40630;DHT22;26329;40.388;-3.710;2023-04-24T13:49:26;24.60;33.40
40630;DHT22;26329;40.388;-3.710;2023-04-24T13:59:28;24.70;32.70
40630;DHT22;26329;40.388;-3.710;2023-04-24T14:09:29;24.90;32.50
40630;DHT22;26329;40.388;-3.710;2023-04-24T14:19:31;25.00;31.00
40630;DHT22;26329;40.388;-3.710;2023-04-24T14:29:32;25.20;30.50
40630;DHT22;26329;40.388;-3.710;2023-04-24T14:39:33;25.40;31.00
40630;DHT22;26329;40.388;-3.710;2023-04-24T14:49:35;25.50;30.40
40630;DHT22;26329;40.388;-3.710;2023-04-24T14:59:36;25.70;30.10
40630;DHT22;26329;40.388;-3.710;2023-04-24T15:09:38;25.80;29.90
40630;DHT22;26329;40.388;-3.710;2023-04-24T15:19:39;25.80;29.60
40630;DHT22;26329;40.388;-3.710;2023-04-24T15:29:41;25.80;29.70
40630;DHT22;26329;40.388;-3.710;2023-04-24T15:39:44;25.90;29.90
40630;DHT22;26329;40.388;-3.710;2023-04-24T15:49:46;26.20;29.60
40630;DHT22;26329;40.388;-3.710;2023-04-24T15:59:47;25.80;29.60
40630;DHT22;26329;40.388;-3.710;2023-04-24T16:19:50;26.50;29.40
40630;DHT22;26329;40.388;-3.710;2023-04-24T16:29:52;25.60;31.00
40630;DHT22;26329;40.388;-3.710;2023-04-24T16:39:53;25.80;30.90
40630;DHT22;26329;40.388;-3.710;2023-04-24T16:49:55;25.90;30.70
40630;DHT22;26329;40.388;-3.710;2023-04-24T16:59:56;25.70;31.20
40630;DHT22;26329;40.388;-3.710;2023-04-24T17:09:57;25.40;31.50
40630;DHT22;26329;40.388;-3.710;2023-04-24T17:19:59;25.30;31.70
40630;DHT22;26329;40.388;-3.710;2023-04-24T17:30:00;25.30;31.90
40630;DHT22;26329;40.388;-3.710;2023-04-24T17:40:02;25.30;32.30
40630;DHT22;26329;40.388;-3.710;2023-04-24T17:50:04;25.10;32.90
40630;DHT22;26329;40.388;-3.710;2023-04-24T18:00:06;25.10;32.40
40630;DHT22;26329;40.388;-3.710;2023-04-24T18:10:09;25.00;32.40
40630;DHT22;26329;40.388;-3.710;2023-04-24T18:20:12;24.80;32.90
40630;DHT22;26329;40.388;-3.710;2023-04-24T18:30:13;24.70;32.80
40630;DHT22;26329;40.388;-3.710;2023-04-24T18:40:15;24.70;33.70
40630;DHT22;26329;40.388;-3.710;2023-04-24T18:50:16;24.50;33.70
40630;DHT22;26329;40.388;-3.710;2023-04-24T19:00:19;24.20;33.40
40630;DHT22;26329;40.388;-3.710;2023-04-24T19:10:20;24.00;33.80
40630;DHT22;26329;40.388;-3.710;2023-04-24T19:20:22;23.80;34.20
40630;DHT22;26329;40.388;-3.710;2023-04-24T19:30:23;23.60;34.20
40630;DHT22;26329;40.388;-3.710;2023-04-24T19:40:25;23.30;33.80
40630;DHT22;26329;40.388;-3.710;2023-04-24T19:50:26;23.10;33.80
40630;DHT22;26329;40.388;-3.710;2023-04-24T20:00:28;22.80;34.10
40630;DHT22;26329;40.388;-3.710;2023-04-24T20:10:29;22.70;34.60
40630;DHT22;26329;40.388;-3.710;2023-04-24T20:20:31;22.50;35.00
40630;DHT22;26329;40.388;-3.710;2023-04-24T20:30:33;22.40;36.00
40630;DHT22;26329;40.388;-3.710;2023-04-24T20:40:34;22.20;36.70
40630;DHT22;26329;40.388;-3.710;2023-04-24T20:50:36;22.00;37.10
40630;DHT22;26329;40.388;-3.710;2023-04-24T21:00:40;21.90;37.60
40630;DHT22;26329;40.388;-3.710;2023-04-24T21:10:42;21.70;38.40
40630;DHT22;26329;40.388;-3.710;2023-04-24T21:20:43;21.50;39.00
40630;DHT22;26329;40.388;-3.710;2023-04-24T21:30:45;21.40;39.60
40630;DHT22;26329;40.388;-3.710;2023-04-24T21:40:46;21.30;40.30
40630;DHT22;26329;40.388;-3.710;2023-04-24T21:50:48;21.20;41.20
40630;DHT22;26329;40.388;-3.710;2023-04-24T22:00:49;21.10;42.00
40630;DHT22;26329;40.388;-3.710;2023-04-24T22:10:50;21.00;42.50
40630;DHT22;26329;40.388;-3.710;2023-04-24T22:20:53;20.90;42.90
40630;DHT22;26329;40.388;-3.710;2023-04-24T22:30:54;20.80;43.90
40630;DHT22;26329;40.388;-3.710;2023-04-24T22:40:56;20.70;44.80
40630;DHT22;26329;40.388;-3.710;2023-04-24T22:50:57;20.60;45.60
40630;DHT22;26329;40.388;-3.710;2023-04-24T23:00:58;20.50;46.80
40630;DHT22;26329;40.388;-3.710;2023-04-24T23:11:00;20.30;47.30
40630;DHT22;26329;40.388;-3.710;2023-04-24T23:21:01;20.20;48.00
40630;DHT22;26329;40.388;-3.710;2023-04-24T23:31:03;20.10;48.80
40630;DHT22;26329;40.388;-3.710;2023-04-24T23:41:04;20.00;49.40
40630;DHT22;26329;40.388;-3.710;2023-04-24T23:51:06;19.90;49.90
